createdAt,value
2024-03-16T00:00:52.183Z,7.11
2024-03-16T00:03:20.534Z,7.12
2024-03-16T00:05:47.797Z,7.03
2024-03-16T00:08:14.801Z,7.15
2024-03-16T00:10:41.779Z,7.20
2024-03-16T00:13:08.936Z,7.23
2024-03-16T00:15:36.057Z,7.22
2024-03-16T00:18:03.221Z,7.23
2024-03-16T00:20:32.000Z,7.23
2024-03-16T00:22:59.374Z,7.31
2024-03-16T00:25:26.645Z,7.25
2024-03-16T00:27:54.179Z,7.17
2024-03-16T00:30:21.500Z,7.16
2024-03-16T00:32:48.735Z,6.98
2024-03-16T00:35:15.721Z,6.93
2024-03-16T00:37:42.678Z,6.90
2024-03-16T00:40:10.683Z,6.93
2024-03-16T00:42:37.812Z,6.97
2024-03-16T00:45:05.598Z,6.83
2024-03-16T00:47:32.869Z,6.65
2024-03-16T00:49:59.846Z,6.77
2024-03-16T00:52:26.847Z,6.58
2024-03-16T00:54:53.951Z,6.38
2024-03-16T00:57:20.910Z,6.28
2024-03-16T00:59:47.855Z,6.01
2024-03-16T01:02:14.822Z,5.79
2024-03-16T01:04:41.883Z,5.61
2024-03-16T01:07:08.993Z,5.64
2024-03-16T01:09:36.038Z,5.73
2024-03-16T01:12:03.982Z,5.82
2024-03-16T01:14:31.057Z,5.69
2024-03-16T01:16:57.993Z,5.55
2024-03-16T01:19:26.395Z,5.58
2024-03-16T01:21:53.408Z,5.60
2024-03-16T01:24:20.383Z,5.68
2024-03-16T01:26:48.561Z,5.72
2024-03-16T01:29:17.238Z,5.97
2024-03-16T01:31:44.425Z,6.06
2024-03-16T01:34:12.051Z,6.16
2024-03-16T01:36:39.525Z,6.14
2024-03-16T01:39:06.997Z,6.04
2024-03-16T01:41:33.978Z,6.21
2024-03-16T01:44:11.549Z,6.19
2024-03-16T01:46:42.826Z,6.20
2024-03-16T01:49:10.665Z,6.05
2024-03-16T01:51:39.479Z,5.97
2024-03-16T01:54:07.381Z,5.86
2024-03-16T01:56:35.448Z,5.81
2024-03-16T01:59:02.510Z,5.76
2024-03-16T02:01:30.117Z,5.76
2024-03-16T02:03:59.103Z,5.52
2024-03-16T02:06:28.450Z,5.78
2024-03-16T02:08:55.968Z,5.64
2024-03-16T02:11:23.406Z,5.66
2024-03-16T02:13:50.598Z,5.66
2024-03-16T02:16:17.670Z,5.65
2024-03-16T02:18:44.736Z,5.53
2024-03-16T02:21:11.885Z,5.50
2024-03-16T02:23:40.897Z,5.31
2024-03-16T02:26:12.171Z,5.42
2024-03-16T02:28:39.163Z,5.35
2024-03-16T02:31:06.490Z,5.38
2024-03-16T02:33:33.798Z,5.37
2024-03-16T02:36:00.808Z,5.37
2024-03-16T02:38:27.767Z,5.30
2024-03-16T02:40:54.913Z,5.44
2024-03-16T02:43:21.887Z,5.40
2024-03-16T02:45:48.964Z,5.36
2024-03-16T02:48:15.998Z,5.27
2024-03-16T02:50:43.075Z,5.16
2024-03-16T02:53:10.090Z,5.22
2024-03-16T02:55:37.028Z,5.35
2024-03-16T02:58:04.334Z,5.35
2024-03-16T03:00:31.463Z,5.24
2024-03-16T03:02:58.671Z,5.30
2024-03-16T03:05:25.748Z,5.31
2024-03-16T03:07:53.928Z,5.29
2024-03-16T03:10:23.028Z,5.27
2024-03-16T03:12:50.936Z,5.38
2024-03-16T03:15:18.152Z,5.36
2024-03-16T03:17:45.216Z,5.42
2024-03-16T03:20:12.517Z,5.39
2024-03-16T03:22:39.697Z,5.39
2024-03-16T03:25:07.082Z,5.36
2024-03-16T03:27:35.095Z,5.33
2024-03-16T03:30:02.316Z,5.23
2024-03-16T03:32:31.644Z,5.26
2024-03-16T03:34:58.733Z,5.31
2024-03-16T03:37:25.703Z,5.34
2024-03-16T03:39:54.055Z,5.22
2024-03-16T03:42:26.758Z,5.14
2024-03-16T03:45:12.885Z,5.18
2024-03-16T03:47:59.407Z,5.16
2024-03-16T03:50:34.029Z,5.26
2024-03-16T03:53:03.792Z,5.14
2024-03-16T03:55:31.313Z,4.98
2024-03-16T03:57:58.638Z,4.89
2024-03-16T04:00:25.762Z,4.69
2024-03-16T04:02:52.798Z,4.63
2024-03-16T04:05:19.821Z,4.42
2024-03-16T04:07:47.216Z,4.48
2024-03-16T04:10:14.303Z,4.54
2024-03-16T04:12:41.373Z,4.42
2024-03-16T04:15:08.493Z,4.58
2024-03-16T04:17:35.534Z,4.64
2024-03-16T04:20:02.546Z,4.75
2024-03-16T04:22:30.654Z,4.67
2024-03-16T04:24:57.705Z,4.61
2024-03-16T04:27:24.699Z,4.48
2024-03-16T04:29:51.748Z,4.38
2024-03-16T04:32:18.821Z,4.13
2024-03-16T04:34:45.779Z,3.96
2024-03-16T04:37:12.820Z,3.72
2024-03-16T04:39:44.879Z,3.57
2024-03-16T04:42:12.661Z,3.65
2024-03-16T04:44:39.741Z,3.44
2024-03-16T04:47:07.219Z,3.41
2024-03-16T04:49:34.374Z,3.41
2024-03-16T04:52:01.690Z,3.23
2024-03-16T04:54:28.711Z,3.22
2024-03-16T04:56:55.676Z,3.33
2024-03-16T04:59:22.711Z,3.28
2024-03-16T05:01:49.861Z,3.27
2024-03-16T05:04:17.158Z,3.21
2024-03-16T05:06:44.225Z,3.33
2024-03-16T05:09:12.252Z,3.50
2024-03-16T05:11:39.222Z,3.70
2024-03-16T05:14:09.557Z,3.58
2024-03-16T05:16:41.062Z,3.67
2024-03-16T05:23:06.123Z,4.03
2024-03-16T05:25:33.114Z,4.00
2024-03-16T05:28:00.325Z,3.75
2024-03-16T05:30:27.772Z,3.86
2024-03-16T05:32:54.755Z,3.73
2024-03-16T05:35:21.705Z,4.07
2024-03-16T05:37:48.778Z,4.21
2024-03-16T05:40:15.859Z,4.36
2024-03-16T05:42:42.862Z,4.70
2024-03-16T05:45:09.955Z,5.08
2024-03-16T05:47:37.641Z,5.11
2024-03-16T05:50:05.152Z,5.37
2024-03-16T05:52:32.248Z,5.34
2024-03-16T05:54:59.232Z,5.32
2024-03-16T05:57:26.210Z,4.65
2024-03-16T05:59:54.149Z,4.22
2024-03-16T06:02:23.415Z,4.32
2024-03-16T06:04:50.707Z,4.27
2024-03-16T06:07:18.050Z,3.91
2024-03-16T06:09:45.103Z,3.99
2024-03-16T06:12:12.131Z,3.84
2024-03-16T06:14:39.298Z,4.20
2024-03-16T06:17:06.318Z,4.39
2024-03-16T06:19:33.404Z,4.63
2024-03-16T06:22:00.502Z,4.73
2024-03-16T06:24:27.521Z,4.95
2024-03-16T06:27:01.843Z,5.08
2024-03-16T06:29:29.073Z,5.34
2024-03-16T06:32:06.732Z,5.45
2024-03-16T06:34:37.514Z,5.58
2024-03-16T06:37:05.236Z,5.62
2024-03-16T06:39:32.437Z,5.44
2024-03-16T06:41:59.445Z,5.62
2024-03-16T06:44:26.455Z,5.70
2024-03-16T06:46:53.610Z,5.75
2024-03-16T06:49:20.716Z,5.50
2024-03-16T06:51:47.839Z,5.53
2024-03-16T06:54:14.915Z,5.30
2024-03-16T06:56:42.117Z,5.65
2024-03-16T06:59:09.135Z,5.56
2024-03-16T07:01:36.191Z,5.72
2024-03-16T07:04:03.408Z,5.57
2024-03-16T07:06:30.907Z,5.74
2024-03-16T07:09:01.320Z,5.92
2024-03-16T07:11:28.948Z,6.25
2024-03-16T07:13:56.044Z,6.35
2024-03-16T07:23:04.705Z,6.68
2024-03-16T07:25:31.666Z,6.96
2024-03-16T07:27:58.828Z,6.96
2024-03-16T07:30:26.505Z,7.01
2024-03-16T07:32:53.840Z,6.79
2024-03-16T07:35:20.910Z,6.80
2024-03-16T07:37:48.915Z,6.62
2024-03-16T07:40:17.364Z,6.09
2024-03-16T07:42:45.513Z,6.00
2024-03-16T07:45:14.070Z,6.09
2024-03-16T07:47:41.345Z,6.13
2024-03-16T07:50:08.865Z,6.26
2024-03-16T07:52:35.975Z,6.37
2024-03-16T07:55:07.702Z,6.54
2024-03-16T07:57:35.294Z,6.38
2024-03-16T08:00:02.567Z,6.71
2024-03-16T08:02:39.636Z,6.20
2024-03-16T08:05:06.698Z,5.80
2024-03-16T08:07:33.711Z,6.11
2024-03-16T08:10:02.655Z,6.43
2024-03-16T08:12:33.543Z,6.67
2024-03-16T08:15:01.292Z,6.83
2024-03-16T08:17:31.968Z,6.96
2024-03-16T08:19:59.259Z,6.78
2024-03-16T08:22:26.220Z,6.79
2024-03-16T08:24:53.486Z,7.06
2024-03-16T08:27:20.578Z,7.05
2024-03-16T08:29:47.937Z,6.99
2024-03-16T08:32:16.259Z,7.31
2024-03-16T08:34:44.361Z,7.14
2024-03-16T08:37:13.171Z,7.44
2024-03-16T08:39:42.265Z,7.27
2024-03-16T08:42:09.353Z,7.22
2024-03-16T08:44:36.324Z,7.34
2024-03-16T08:47:03.403Z,7.65
2024-03-16T08:49:30.487Z,7.67
2024-03-16T08:51:59.540Z,7.79
2024-03-16T08:54:26.623Z,7.66
2024-03-16T08:56:54.133Z,7.28
2024-03-16T08:59:21.109Z,7.76
2024-03-16T09:01:48.187Z,7.81
2024-03-16T09:04:16.592Z,7.68
2024-03-16T09:06:43.727Z,7.76
2024-03-16T09:09:13.800Z,8.05
2024-03-16T09:11:41.254Z,8.22
2024-03-16T09:14:08.385Z,8.30
2024-03-16T09:16:41.926Z,8.46
2024-03-16T09:19:09.645Z,7.88
2024-03-16T09:21:36.921Z,9.02
2024-03-16T09:24:04.838Z,9.18
2024-03-16T09:26:32.070Z,9.16
2024-03-16T09:28:59.053Z,9.23
2024-03-16T09:31:26.365Z,9.36
2024-03-16T09:33:53.786Z,9.44
2024-03-16T09:36:21.239Z,9.47
2024-03-16T09:38:49.101Z,9.66
2024-03-16T09:41:19.920Z,9.56
